Time;durP1;ratioP1;P1;durP2;ratioP2;P2;SDS_P1;SDS_P2;PMS_P1;PMS_P2;Temp;Humidity;BMP_temperature;BMP_pressure;BME280_temperature;BME280_humidity;BME280_pressure;Samples;Min_cycle;Max_cycle;Signal;HPM_P1;HPM_P2
2023/11/29 00:00:20;;;;;;;;;;;;;;;;;;5042237;28;19931;-75
2023/11/29 00:02:46;;;;;;;;;;;;;;;;;;5044154;28;19964;-73
2023/11/29 00:05:12;;;;;;;;;;;;;;;;;;5041383;28;20027;-73
2023/11/29 00:07:41;;;;;;;;;;;;;;;;;;5048811;28;19929;-75
2023/11/29 00:10:07;;;;;;;;;;;;;;;;;;5041341;28;20397;-75
2023/11/29 00:12:34;;;;;;;;;;;;;;;;;;5042823;28;20015;-76
2023/11/29 00:15:00;;;;;;;;;;;;;;;;;;5042804;28;20427;-75
2023/11/29 00:17:27;;;;;;;;;;;;;;;;;;5049131;28;19975;-75
2023/11/29 00:19:53;;;;;;;;;;;;;;;;;;5048543;28;19925;-73
2023/11/29 00:22:20;;;;;;;;;;;;;;;;;;5031579;28;19972;-73
2023/11/29 00:24:46;;;;;;;;;;;;;;;;;;5042869;28;20016;-75
2023/11/29 00:27:13;;;;;;;;;;;;;;;;;;5051213;28;20024;-72
2023/11/29 00:29:39;;;;;;;;;;;;;;;;;;5052693;28;19956;-75
2023/11/29 00:32:05;;;;;;;;;;;;;;;;;;5053704;28;20535;-75
2023/11/29 00:34:32;;;;;;;;;;;;;;;;;;5051846;28;20294;-73
2023/11/29 00:36:59;;;;;;;;;;;;;;;;;;5045273;28;19929;-75
2023/11/29 00:39:25;;;;;;;;;;;;;;;;;;5051724;28;20024;-74
2023/11/29 00:41:52;;;;;;;;;;;;;;;;;;5048362;28;20040;-74
2023/11/29 00:44:18;;;;;;;;;;;;;;;;;;5034790;28;19925;-75
2023/11/29 00:46:45;;;;;;;;;;;;;;;;;;5045474;28;19925;-74
2023/11/29 00:49:12;;;;;;;;;;;;;;;;;;5041875;28;19925;-73
2023/11/29 00:51:38;;;;;;;;;;;;;;;;;;5038635;28;19925;-74
2023/11/29 00:54:04;;;;;;;;;;;;;;;;;;5035486;28;19925;-73
2023/11/29 00:56:31;;;;;;;;;;;;;;;;;;5039291;28;19929;-75
2023/11/29 00:58:57;;;;;;;;;;;;;;;;;;5047376;28;19976;-75
2023/11/29 01:01:24;;;;;;;;;;;;;;;;;;5035189;28;20373;-74
2023/11/29 01:03:50;;;;;;;;;;;;;;;;;;5044101;28;20336;-74
2023/11/29 01:06:17;;;;;;;;;;;;;;;;;;5042872;28;19926;-74
2023/11/29 01:08:43;;;;;;;;;;;;;;;;;;5050670;28;19925;-73
2023/11/29 01:11:10;;;;;;;;;;;;;;;;;;5050879;28;19975;-73
2023/11/29 01:13:36;;;;;;;;;;;;;;;;;;5040114;28;19975;-72
2023/11/29 01:16:03;;;;;;;;;;;;;;;;;;5040254;28;20441;-74
2023/11/29 01:18:32;;;;;;;;;;;;;;;;;;5052890;28;20305;-72
2023/11/29 01:20:59;;;;;;;;;;;;;;;;;;5043927;28;19933;-75
2023/11/29 01:23:25;;;;;;;;;;;;;;;;;;5051798;28;19953;-77
2023/11/29 01:25:52;;;;;;;;;;;;;;;;;;5048316;28;20336;-75
2023/11/29 01:28:18;;;;;;;;;;;;;;;;;;5044576;28;19935;-74
2023/11/29 01:30:44;;;;;;;;;;;;;;;;;;5042633;28;19929;-73
2023/11/29 01:33:11;;;;;;;;;;;;;;;;;;5041782;28;19931;-74
2023/11/29 01:35:37;;;;;;;;;;;;;;;;;;5042629;28;20301;-73
2023/11/29 01:38:04;;;;;;;;;;;;;;;;;;5050180;28;19932;-73
2023/11/29 01:40:30;;;;;;;;;;;;;;;;;;5042369;28;19925;-73
2023/11/29 01:42:56;;;;;;;;;;;;;;;;;;5040689;28;20372;-77
2023/11/29 01:45:23;;;;;;;;;;;;;;;;;;5034329;28;19929;-74
2023/11/29 01:47:49;;;;;;;;;;;;;;;;;;5041610;28;20491;-75
2023/11/29 01:50:16;;;;;;;;;;;;;;;;;;5041326;28;19929;-76
2023/11/29 01:52:42;;;;;;;;;;;;;;;;;;5042985;28;19936;-75
2023/11/29 01:55:10;;;;;;;;;;;;;;;;;;5033448;28;20412;-74
2023/11/29 01:57:36;;;;;;;;;;;;;;;;;;5042700;28;19936;-73
2023/11/29 02:00:03;;;;;;;;;;;;;;;;;;5051913;28;20023;-75
2023/11/29 02:02:37;;;;;;;;;;;;;;;;;;5043003;28;19936;-74
2023/11/29 02:05:04;;;;;;;;;;;;;;;;;;5043862;28;19951;-75
2023/11/29 02:07:30;;;;;;;;;;;;;;;;;;5050693;28;19928;-73
2023/11/29 02:09:57;;;;;;;;;;;;;;;;;;5028395;28;19924;-76
2023/11/29 02:12:23;;;;;;;;;;;;;;;;;;5041966;28;20381;-74
2023/11/29 02:14:49;;;;;;;;;;;;;;;;;;5044845;28;19925;-76
2023/11/29 02:17:17;;;;;;;;;;;;;;;;;;5048826;28;19932;-76
2023/11/29 02:19:43;;;;;;;;;;;;;;;;;;5044003;28;19936;-75
2023/11/29 02:22:10;;;;;;;;;;;;;;;;;;5044299;28;19995;-75
2023/11/29 02:24:36;;;;;;;;;;;;;;;;;;5048303;28;19935;-73
2023/11/29 02:27:02;;;;;;;;;;;;;;;;;;5049501;28;19925;-73
2023/11/29 02:29:29;;;;;;;;;;;;;;;;;;5033077;28;19929;-74
2023/11/29 02:31:55;;;;;;;;;;;;;;;;;;5050083;28;19925;-74
2023/11/29 02:34:22;;;;;;;;;;;;;;;;;;5049180;28;20003;-74
2023/11/29 02:36:48;;;;;;;;;;;;;;;;;;5049654;28;19933;-74
2023/11/29 02:39:15;;;;;;;;;;;;;;;;;;5050007;28;19995;-73
2023/11/29 02:41:41;;;;;;;;;;;;;;;;;;5042309;28;19925;-73
2023/11/29 02:44:07;;;;;;;;;;;;;;;;;;5028611;28;19971;-76
2023/11/29 02:46:34;;;;;;;;;;;;;;;;;;5048729;28;20024;-73
2023/11/29 02:49:00;;;;;;;;;;;;;;;;;;5048722;28;20233;-72
2023/11/29 02:51:27;;;;;;;;;;;;;;;;;;5028115;28;19935;-75
2023/11/29 02:53:57;;;;;;;;;;;;;;;;;;5048833;28;20346;-74
2023/11/29 02:56:23;;;;;;;;;;;;;;;;;;5051063;28;19928;-75
2023/11/29 02:58:50;;;;;;;;;;;;;;;;;;5056068;28;19951;-75
2023/11/29 03:01:16;;;;;;;;;;;;;;;;;;5044869;28;19947;-73
2023/11/29 03:03:43;;;;;;;;;;;;;;;;;;5044571;28;19925;-75
2023/11/29 03:06:09;;;;;;;;;;;;;;;;;;5027985;28;19929;-76
2023/11/29 03:08:37;;;;;;;;;;;;;;;;;;5048580;28;19929;-75
2023/11/29 03:11:03;;;;;;;;;;;;;;;;;;5048970;28;20021;-75
2023/11/29 03:13:29;;;;;;;;;;;;;;;;;;5032705;28;20409;-73
2023/11/29 03:15:56;;;;;;;;;;;;;;;;;;5040696;28;19975;-76
2023/11/29 03:18:22;;;;;;;;;;;;;;;;;;5036329;28;19931;-75
2023/11/29 03:20:52;;;;;;;;;;;;;;;;;;5049231;28;19929;-75
2023/11/29 03:23:20;;;;;;;;;;;;;;;;;;5042616;28;19929;-74
2023/11/29 03:25:46;;;;;;;;;;;;;;;;;;5032909;28;19968;-75
2023/11/29 03:28:13;;;;;;;;;;;;;;;;;;5045411;28;20297;-75
2023/11/29 03:30:39;;;;;;;;;;;;;;;;;;5048975;28;19972;-75
2023/11/29 03:33:07;;;;;;;;;;;;;;;;;;5040007;28;19925;-76
2023/11/29 03:35:33;;;;;;;;;;;;;;;;;;5045857;28;19929;-75
2023/11/29 03:38:00;;;;;;;;;;;;;;;;;;5047698;28;19925;-76
2023/11/29 03:40:26;;;;;;;;;;;;;;;;;;5030721;28;20377;-73
2023/11/29 03:42:53;;;;;;;;;;;;;;;;;;5048014;28;19978;-74
2023/11/29 03:45:19;;;;;;;;;;;;;;;;;;5041225;28;19928;-74
2023/11/29 03:47:46;;;;;;;;;;;;;;;;;;5045537;28;19932;-75
2023/11/29 03:50:12;;;;;;;;;;;;;;;;;;5041766;28;19924;-74
2023/11/29 03:52:39;;;;;;;;;;;;;;;;;;5049060;28;19936;-76
2023/11/29 03:55:06;;;;;;;;;;;;;;;;;;5047649;28;19948;-75
2023/11/29 03:57:34;;;;;;;;;;;;;;;;;;5040607;28;19929;-76
2023/11/29 04:00:00;;;;;;;;;;;;;;;;;;5038454;28;19929;-76
2023/11/29 04:02:30;;;;;;;;;;;;;;;;;;5044022;28;19933;-74
2023/11/29 04:04:56;;;;;;;;;;;;;;;;;;5046199;28;19928;-75
2023/11/29 04:07:23;;;;;;;;;;;;;;;;;;5046695;28;20015;-75
2023/11/29 04:09:49;;;;;;;;;;;;;;;;;;5035679;28;19929;-74
2023/11/29 04:12:23;;;;;;;;;;;;;;;;;;5039504;28;19925;-74
2023/11/29 04:14:49;;;;;;;;;;;;;;;;;;5045003;28;19929;-73
2023/11/29 04:17:16;;;;;;;;;;;;;;;;;;5046645;28;19925;-74
2023/11/29 04:19:42;;;;;;;;;;;;;;;;;;5043244;28;20487;-75
2023/11/29 04:22:09;;;;;;;;;;;;;;;;;;5045005;28;19965;-76
2023/11/29 04:24:35;;;;;;;;;;;;;;;;;;5053480;28;19932;-73
2023/11/29 04:27:02;;;;;;;;;;;;;;;;;;5053660;28;19960;-73
2023/11/29 04:29:28;;;;;;;;;;;;;;;;;;5052500;28;20404;-74
2023/11/29 04:31:55;;;;;;;;;;;;;;;;;;5046718;28;19928;-73
2023/11/29 04:34:21;;;;;;;;;;;;;;;;;;5045521;28;20023;-75
2023/11/29 04:36:58;;;;;;;;;;;;;;;;;;5054228;28;19932;-75
2023/11/29 04:39:24;;;;;;;;;;;;;;;;;;5046504;28;19939;-75
2023/11/29 04:41:51;;;;;;;;;;;;;;;;;;5041158;28;19943;-73
2023/11/29 04:44:17;;;;;;;;;;;;;;;;;;5051025;28;19925;-75
2023/11/29 04:46:44;;;;;;;;;;;;;;;;;;5040798;28;20016;-73
2023/11/29 04:49:10;;;;;;;;;;;;;;;;;;5028816;28;19925;-75
2023/11/29 04:51:38;;;;;;;;;;;;;;;;;;5045763;28;19948;-75
2023/11/29 04:54:04;;;;;;;;;;;;;;;;;;5044321;28;20317;-75
2023/11/29 04:56:30;;;;;;;;;;;;;;;;;;5049558;28;19929;-75
2023/11/29 04:58:59;;;;;;;;;;;;;;;;;;5046601;28;20355;-75
2023/11/29 05:01:25;;;;;;;;;;;;;;;;;;5039496;28;19925;-76
2023/11/29 05:03:52;;;;;;;;;;;;;;;;;;5047768;28;20336;-77
2023/11/29 05:06:20;;;;;;;;;;;;;;;;;;5042751;28;20016;-75
2023/11/29 05:08:46;;;;;;;;;;;;;;;;;;5043984;28;19924;-73
2023/11/29 05:11:13;;;;;;;;;;;;;;;;;;5050458;28;20385;-74
2023/11/29 05:13:39;;;;;;;;;;;;;;;;;;5046155;28;19929;-76
2023/11/29 05:16:05;;;;;;;;;;;;;;;;;;5041725;28;19933;-75
2023/11/29 05:18:32;;;;;;;;;;;;;;;;;;5044013;28;19925;-76
2023/11/29 05:20:58;;;;;;;;;;;;;;;;;;5046503;28;19925;-75
2023/11/29 05:23:26;;;;;;;;;;;;;;;;;;5045499;28;19929;-76
2023/11/29 05:25:53;;;;;;;;;;;;;;;;;;5038997;28;19936;-75
2023/11/29 05:28:19;;;;;;;;;;;;;;;;;;5044196;28;20397;-73
2023/11/29 05:30:46;;;;;;;;;;;;;;;;;;5049176;28;20301;-76
2023/11/29 05:33:12;;;;;;;;;;;;;;;;;;5045194;28;20290;-75
2023/11/29 05:35:39;;;;;;;;;;;;;;;;;;5036502;28;19948;-75
2023/11/29 05:38:05;;;;;;;;;;;;;;;;;;5049078;28;20000;-75
2023/11/29 05:40:31;;;;;;;;;;;;;;;;;;5042688;28;20012;-77
2023/11/29 05:42:58;;;;;;;;;;;;;;;;;;5045512;28;19936;-76
2023/11/29 05:45:24;;;;;;;;;;;;;;;;;;5048510;28;20006;-76
2023/11/29 05:47:50;;;;;;;;;;;;;;;;;;5043767;28;20008;-77
2023/11/29 05:50:17;;;;;;;;;;;;;;;;;;5049724;28;19925;-75
2023/11/29 05:52:43;;;;;;;;;;;;;;;;;;4979536;28;1808807;-73
2023/11/29 05:55:10;;;;;;;;;;;;;;;;;;5028200;28;19925;-76
2023/11/29 05:57:36;;;;;;;;;;;;;;;;;;5048638;28;19964;-78
2023/11/29 06:00:08;;;;;;;;;;;;;;;;;;5030681;28;19925;-77
2023/11/29 06:02:49;;;;;;;;;;;;;;;;;;5045318;28;19928;-76
2023/11/29 06:05:15;;;;;;;;;;;;;;;;;;5043379;28;20348;-77
2023/11/29 06:07:41;;;;;;;;;;;;;;;;;;5046544;28;19947;-76
2023/11/29 06:10:08;;;;;;;;;;;;;;;;;;5038954;28;19925;-76
2023/11/29 06:12:37;;;;;;;;;;;;;;;;;;5041790;28;19929;-76
2023/11/29 06:15:04;;;;;;;;;;;;;;;;;;5030094;28;20390;-76
2023/11/29 06:17:31;;;;;;;;;;;;;;;;;;5029181;28;19929;-76
2023/11/29 06:19:58;;;;;;;;;;;;;;;;;;5043244;28;20408;-73
2023/11/29 06:22:25;;;;;;;;;;;;;;;;;;5041069;28;19928;-74
2023/11/29 06:24:51;;;;;;;;;;;;;;;;;;5033204;28;19945;-75
2023/11/29 06:27:17;;;;;;;;;;;;;;;;;;5041063;28;19975;-75
2023/11/29 06:29:44;;;;;;;;;;;;;;;;;;5039669;28;19970;-74
2023/11/29 06:32:10;;;;;;;;;;;;;;;;;;5036951;28;20377;-76
2023/11/29 06:34:37;;;;;;;;;;;;;;;;;;5048849;28;19983;-75
2023/11/29 06:37:03;;;;;;;;;;;;;;;;;;5038073;28;19925;-76
2023/11/29 06:39:30;;;;;;;;;;;;;;;;;;5036540;28;19951;-76
2023/11/29 06:41:56;;;;;;;;;;;;;;;;;;5037499;28;19931;-74
2023/11/29 06:44:23;;;;;;;;;;;;;;;;;;5044280;28;19924;-75
2023/11/29 06:46:50;;;;;;;;;;;;;;;;;;5038538;28;19933;-76
2023/11/29 06:49:19;;;;;;;;;;;;;;;;;;5047415;28;19974;-77
2023/11/29 06:51:46;;;;;;;;;;;;;;;;;;5049325;28;20612;-75
2023/11/29 06:54:12;;;;;;;;;;;;;;;;;;5041525;28;20304;-78
2023/11/29 06:56:39;;;;;;;;;;;;;;;;;;5043340;28;19958;-77
2023/11/29 06:59:06;;;;;;;;;;;;;;;;;;5044675;28;19924;-77
2023/11/29 07:01:32;;;;;;;;;;;;;;;;;;5050190;28;20286;-77
2023/11/29 07:03:59;;;;;;;;;;;;;;;;;;5044951;28;20676;-77
2023/11/29 07:06:26;;;;;;;;;;;;;;;;;;5046121;28;20389;-76
2023/11/29 07:08:52;;;;;;;;;;;;;;;;;;5040771;28;19932;-77
2023/11/29 07:11:19;;;;;;;;;;;;;;;;;;5039024;28;20412;-76
2023/11/29 07:13:46;;;;;;;;;;;;;;;;;;5041823;28;19947;-77
2023/11/29 07:16:12;;;;;;;;;;;;;;;;;;5047744;28;19925;-76
2023/11/29 07:18:39;;;;;;;;;;;;;;;;;;5042806;28;20023;-76
2023/11/29 07:21:05;;;;;;;;;;;;;;;;;;5050479;28;20294;-76
2023/11/29 07:23:31;;;;;;;;;;;;;;;;;;5043698;28;19928;-75
2023/11/29 07:25:58;;;;;;;;;;;;;;;;;;5048620;28;19932;-75
2023/11/29 07:28:25;;;;;;;;;;;;;;;;;;5036873;28;20015;-77
2023/11/29 07:30:52;;;;;;;;;;;;;;;;;;5040053;28;19968;-77
2023/11/29 07:33:18;;;;;;;;;;;;;;;;;;5049946;28;19965;-77
2023/11/29 07:35:44;;;;;;;;;;;;;;;;;;5049373;28;20019;-76
2023/11/29 07:38:12;;;;;;;;;;;;;;;;;;5047993;28;20370;-75
2023/11/29 07:40:38;;;;;;;;;;;;;;;;;;5047856;28;19929;-76
2023/11/29 07:43:05;;;;;;;;;;;;;;;;;;5050251;28;20078;-75
2023/11/29 07:45:31;;;;;;;;;;;;;;;;;;5041399;28;19935;-77
2023/11/29 07:47:58;;;;;;;;;;;;;;;;;;5038435;28;20055;-77
2023/11/29 07:50:25;;;;;;;;;;;;;;;;;;5041045;28;19933;-75
2023/11/29 07:52:51;;;;;;;;;;;;;;;;;;5044479;28;19929;-76
2023/11/29 07:55:18;;;;;;;;;;;;;;;;;;5039577;28;20022;-76
2023/11/29 07:57:45;;;;;;;;;;;;;;;;;;5031818;28;20014;-76
2023/11/29 08:00:12;;;;;;;;;;;;;;;;;;5050218;28;19929;-76
2023/11/29 08:02:41;;;;;;;;;;;;;;;;;;5043227;28;19925;-76
2023/11/29 08:05:07;;;;;;;;;;;;;;;;;;5039776;28;19929;-75
2023/11/29 08:07:34;;;;;;;;;;;;;;;;;;5049124;28;19929;-75
2023/11/29 08:10:04;;;;;;;;;;;;;;;;;;5044308;28;19983;-76
2023/11/29 08:12:31;;;;;;;;;;;;;;;;;;5040129;28;19929;-78
2023/11/29 08:14:57;;;;;;;;;;;;;;;;;;5046463;28;19951;-77
2023/11/29 08:17:24;;;;;;;;;;;;;;;;;;5026042;28;20320;-77
2023/11/29 08:19:50;;;;;;;;;;;;;;;;;;5045117;28;20032;-75
2023/11/29 08:22:17;;;;;;;;;;;;;;;;;;5048866;28;20464;-74
2023/11/29 08:24:43;;;;;;;;;;;;;;;;;;5038420;28;19925;-76
2023/11/29 08:27:09;;;;;;;;;;;;;;;;;;5044978;28;20345;-74
2023/11/29 08:29:37;;;;;;;;;;;;;;;;;;5042507;28;19940;-76
2023/11/29 08:32:04;;;;;;;;;;;;;;;;;;5032958;28;20056;-74
2023/11/29 08:34:30;;;;;;;;;;;;;;;;;;5042112;28;19939;-76
2023/11/29 08:36:57;;;;;;;;;;;;;;;;;;5044821;28;20023;-76
2023/11/29 08:39:23;;;;;;;;;;;;;;;;;;5047245;28;19932;-76
2023/11/29 08:41:50;;;;;;;;;;;;;;;;;;5043028;28;19947;-77
2023/11/29 08:44:18;;;;;;;;;;;;;;;;;;5044027;28;19929;-77
2023/11/29 08:46:45;;;;;;;;;;;;;;;;;;5039341;28;19925;-74
2023/11/29 08:49:11;;;;;;;;;;;;;;;;;;5041440;28;19929;-77
2023/11/29 08:51:38;;;;;;;;;;;;;;;;;;5043887;28;19929;-75
2023/11/29 08:54:05;;;;;;;;;;;;;;;;;;5037544;28;19929;-74
2023/11/29 08:56:32;;;;;;;;;;;;;;;;;;5052968;28;20023;-74
2023/11/29 08:58:59;;;;;;;;;;;;;;;;;;5052009;28;19956;-75
2023/11/29 09:01:25;;;;;;;;;;;;;;;;;;5048789;28;19939;-76
2023/11/29 09:03:52;;;;;;;;;;;;;;;;;;5051285;28;19949;-74
2023/11/29 09:06:18;;;;;;;;;;;;;;;;;;5042492;28;20001;-75
2023/11/29 09:08:46;;;;;;;;;;;;;;;;;;5044662;28;19925;-76
2023/11/29 09:11:13;;;;;;;;;;;;;;;;;;5043550;28;19932;-75
2023/11/29 09:13:40;;;;;;;;;;;;;;;;;;5049097;28;20028;-75
2023/11/29 09:16:06;;;;;;;;;;;;;;;;;;5047089;28;19925;-77
2023/11/29 09:18:33;;;;;;;;;;;;;;;;;;5046634;28;19924;-76
2023/11/29 09:21:00;;;;;;;;;;;;;;;;;;5039404;28;19925;-73
2023/11/29 09:23:27;;;;;;;;;;;;;;;;;;5042696;28;19925;-75
2023/11/29 09:25:53;;;;;;;;;;;;;;;;;;5035069;28;19933;-74
2023/11/29 09:28:19;;;;;;;;;;;;;;;;;;5041618;28;20374;-74
2023/11/29 09:30:46;;;;;;;;;;;;;;;;;;5044744;28;20011;-75
2023/11/29 09:33:12;;;;;;;;;;;;;;;;;;5043897;28;20747;-74
2023/11/29 09:35:41;;;;;;;;;;;;;;;;;;5050398;28;20024;-74
2023/11/29 09:38:08;;;;;;;;;;;;;;;;;;5041572;28;19933;-76
2023/11/29 09:40:34;;;;;;;;;;;;;;;;;;5044327;28;20415;-77
2023/11/29 09:43:01;;;;;;;;;;;;;;;;;;5052404;28;20372;-76
2023/11/29 09:45:27;;;;;;;;;;;;;;;;;;5050065;28;19947;-74
2023/11/29 09:47:54;;;;;;;;;;;;;;;;;;5046755;28;19924;-77
2023/11/29 09:50:21;;;;;;;;;;;;;;;;;;5052075;28;19936;-76
2023/11/29 09:52:49;;;;;;;;;;;;;;;;;;5042927;28;19925;-75
2023/11/29 09:55:15;;;;;;;;;;;;;;;;;;5047208;28;20037;-76
2023/11/29 09:57:42;;;;;;;;;;;;;;;;;;5047275;28;19936;-76
2023/11/29 10:00:10;;;;;;;;;;;;;;;;;;5044719;28;19928;-76
2023/11/29 10:02:37;;;;;;;;;;;;;;;;;;5044097;28;19948;-74
2023/11/29 10:05:03;;;;;;;;;;;;;;;;;;5042270;28;19932;-75
2023/11/29 10:07:29;;;;;;;;;;;;;;;;;;5047017;28;20013;-75
2023/11/29 10:09:56;;;;;;;;;;;;;;;;;;5040674;28;20024;-76
2023/11/29 10:12:23;;;;;;;;;;;;;;;;;;5033821;28;19925;-74
2023/11/29 10:14:49;;;;;;;;;;;;;;;;;;5038882;28;19949;-75
2023/11/29 10:17:24;;;;;;;;;;;;;;;;;;5031606;28;19925;-74
2023/11/29 10:19:50;;;;;;;;;;;;;;;;;;5044275;28;20720;-76
2023/11/29 10:22:17;;;;;;;;;;;;;;;;;;5049379;28;19931;-74
2023/11/29 10:24:43;;;;;;;;;;;;;;;;;;5038578;28;19994;-76
2023/11/29 10:27:10;;;;;;;;;;;;;;;;;;5049888;28;19994;-73
2023/11/29 10:29:37;;;;;;;;;;;;;;;;;;5051686;28;19951;-77
2023/11/29 10:32:03;;;;;;;;;;;;;;;;;;5025429;28;19925;-75
2023/11/29 10:34:30;;;;;;;;;;;;;;;;;;5050700;28;20286;-76
2023/11/29 10:36:56;;;;;;;;;;;;;;;;;;5042174;28;19929;-76
2023/11/29 10:39:24;;;;;;;;;;;;;;;;;;5049774;28;19925;-76
2023/11/29 10:41:51;;;;;;;;;;;;;;;;;;5047071;28;20317;-76
2023/11/29 10:44:17;;;;;;;;;;;;;;;;;;5045744;28;19925;-75
2023/11/29 10:46:44;;;;;;;;;;;;;;;;;;5045608;28;19964;-76
2023/11/29 10:49:10;;;;;;;;;;;;;;;;;;5040596;28;19983;-78
2023/11/29 10:51:37;;;;;;;;;;;;;;;;;;5050254;28;19932;-77
2023/11/29 10:54:04;;;;;;;;;;;;;;;;;;5042674;28;19948;-75
2023/11/29 10:56:31;;;;;;;;;;;;;;;;;;5050267;28;19925;-74
2023/11/29 10:58:58;;;;;;;;;;;;;;;;;;5042950;28;19931;-76
2023/11/29 11:01:25;;;;;;;;;;;;;;;;;;5044964;28;19925;-76
2023/11/29 11:03:52;;;;;;;;;;;;;;;;;;5045034;28;19947;-77
2023/11/29 11:06:18;;;;;;;;;;;;;;;;;;5042105;28;20418;-78
2023/11/29 11:08:45;;;;;;;;;;;;;;;;;;5043237;28;19929;-76
2023/11/29 11:11:11;;;;;;;;;;;;;;;;;;5045505;28;19968;-77
2023/11/29 11:13:38;;;;;;;;;;;;;;;;;;5050584;28;19925;-75
2023/11/29 11:16:05;;;;;;;;;;;;;;;;;;5046370;28;19929;-75
2023/11/29 11:18:33;;;;;;;;;;;;;;;;;;5047803;28;19928;-77
2023/11/29 11:21:02;;;;;;;;;;;;;;;;;;5039283;28;19965;-77
2023/11/29 11:23:29;;;;;;;;;;;;;;;;;;5041581;28;20377;-75
2023/11/29 11:25:56;;;;;;;;;;;;;;;;;;5043532;28;19925;-76
2023/11/29 11:28:22;;;;;;;;;;;;;;;;;;5028498;28;19959;-76
2023/11/29 11:30:49;;;;;;;;;;;;;;;;;;5045112;28;19925;-77
2023/11/29 11:33:15;;;;;;;;;;;;;;;;;;5049666;28;19991;-74
2023/11/29 11:35:42;;;;;;;;;;;;;;;;;;5041260;28;19952;-77
2023/11/29 11:38:08;;;;;;;;;;;;;;;;;;5047499;28;19925;-76
2023/11/29 11:40:35;;;;;;;;;;;;;;;;;;5043270;28;19924;-74
2023/11/29 11:43:01;;;;;;;;;;;;;;;;;;5050059;28;19928;-76
2023/11/29 11:45:29;;;;;;;;;;;;;;;;;;5041510;28;19933;-76
2023/11/29 11:47:56;;;;;;;;;;;;;;;;;;5030245;28;19931;-75
2023/11/29 11:50:23;;;;;;;;;;;;;;;;;;5038474;28;19986;-74
2023/11/29 11:52:49;;;;;;;;;;;;;;;;;;5029790;28;19932;-74
2023/11/29 11:55:15;;;;;;;;;;;;;;;;;;5032256;28;20012;-75
2023/11/29 11:57:46;;;;;;;;;;;;;;;;;;5038342;28;19924;-76
2023/11/29 12:00:13;;;;;;;;;;;;;;;;;;5046304;28;19932;-74
2023/11/29 12:02:39;;;;;;;;;;;;;;;;;;5040232;28;19975;-75
2023/11/29 12:05:06;;;;;;;;;;;;;;;;;;5050451;28;19943;-74
2023/11/29 12:07:34;;;;;;;;;;;;;;;;;;5041101;28;19925;-75
2023/11/29 12:10:00;;;;;;;;;;;;;;;;;;5027151;28;19931;-74
2023/11/29 12:12:27;;;;;;;;;;;;;;;;;;5047115;28;19956;-75
2023/11/29 12:14:54;;;;;;;;;;;;;;;;;;5049421;28;20104;-74
2023/11/29 12:17:21;;;;;;;;;;;;;;;;;;5033741;28;19925;-76
2023/11/29 12:19:47;;;;;;;;;;;;;;;;;;5049345;28;19933;-76
2023/11/29 12:22:14;;;;;;;;;;;;;;;;;;5042529;28;19925;-75
2023/11/29 12:24:40;;;;;;;;;;;;;;;;;;5052883;28;19932;-76
2023/11/29 12:27:13;;;;;;;;;;;;;;;;;;5041711;28;20405;-76
2023/11/29 12:29:39;;;;;;;;;;;;;;;;;;5053954;28;20003;-77
2023/11/29 12:32:06;;;;;;;;;;;;;;;;;;5043517;28;19935;-76
2023/11/29 12:34:32;;;;;;;;;;;;;;;;;;5043465;28;19924;-76
2023/11/29 12:37:00;;;;;;;;;;;;;;;;;;5046231;28;20040;-76
2023/11/29 12:39:27;;;;;;;;;;;;;;;;;;5047153;28;19925;-76
2023/11/29 12:41:53;;;;;;;;;;;;;;;;;;5045644;28;19925;-76
2023/11/29 12:44:20;;;;;;;;;;;;;;;;;;5035715;28;20081;-77
2023/11/29 12:46:46;;;;;;;;;;;;;;;;;;5052615;28;19929;-76
2023/11/29 12:49:13;;;;;;;;;;;;;;;;;;5046899;28;19925;-77
2023/11/29 12:51:39;;;;;;;;;;;;;;;;;;5047333;28;19933;-76
2023/11/29 12:54:05;;;;;;;;;;;;;;;;;;5033964;28;20396;-74
2023/11/29 12:56:38;;;;;;;;;;;;;;;;;;5051723;28;19957;-75
2023/11/29 12:59:04;;;;;;;;;;;;;;;;;;5046793;28;19979;-77
2023/11/29 13:01:32;;;;;;;;;;;;;;;;;;5053952;28;19925;-77
2023/11/29 13:03:58;;;;;;;;;;;;;;;;;;5048856;28;19932;-76
2023/11/29 13:06:25;;;;;;;;;;;;;;;;;;5032507;28;20043;-76
2023/11/29 13:08:51;;;;;;;;;;;;;;;;;;5048712;28;19928;-76
2023/11/29 13:11:18;;;;;;;;;;;;;;;;;;5051886;28;20308;-78
2023/11/29 13:13:44;;;;;;;;;;;;;;;;;;5047686;28;19933;-77
2023/11/29 13:16:11;;;;;;;;;;;;;;;;;;5045615;28;19932;-77
2023/11/29 13:18:37;;;;;;;;;;;;;;;;;;5042387;28;19933;-77
2023/11/29 13:21:04;;;;;;;;;;;;;;;;;;5046689;28;19925;-77
2023/11/29 13:23:31;;;;;;;;;;;;;;;;;;5043265;28;19983;-78
2023/11/29 13:25:57;;;;;;;;;;;;;;;;;;5045349;28;19935;-78
2023/11/29 13:28:24;;;;;;;;;;;;;;;;;;5033733;28;19929;-77
2023/11/29 13:30:50;;;;;;;;;;;;;;;;;;5040555;28;19929;-77
2023/11/29 13:33:18;;;;;;;;;;;;;;;;;;5032457;28;20011;-78
2023/11/29 13:35:44;;;;;;;;;;;;;;;;;;5027699;28;19940;-77
2023/11/29 13:38:11;;;;;;;;;;;;;;;;;;5049333;28;20033;-79
2023/11/29 13:40:37;;;;;;;;;;;;;;;;;;5045578;28;19929;-77
2023/11/29 13:43:05;;;;;;;;;;;;;;;;;;5051861;28;19932;-77
2023/11/29 13:45:31;;;;;;;;;;;;;;;;;;5044108;28;19956;-78
2023/11/29 13:47:58;;;;;;;;;;;;;;;;;;5047222;28;20336;-78
2023/11/29 13:50:25;;;;;;;;;;;;;;;;;;5042322;28;19929;-78
2023/11/29 13:52:52;;;;;;;;;;;;;;;;;;5038851;28;19929;-78
2023/11/29 13:55:18;;;;;;;;;;;;;;;;;;5046628;28;19935;-77
2023/11/29 13:57:44;;;;;;;;;;;;;;;;;;5032333;28;20023;-78
2023/11/29 14:00:11;;;;;;;;;;;;;;;;;;5039948;28;19929;-78
2023/11/29 14:02:37;;;;;;;;;;;;;;;;;;5025920;28;19928;-79
2023/11/29 14:05:04;;;;;;;;;;;;;;;;;;5026649;28;19961;-79
2023/11/29 14:07:30;;;;;;;;;;;;;;;;;;5042065;28;20032;-78
2023/11/29 14:09:57;;;;;;;;;;;;;;;;;;5031793;28;19967;-78
2023/11/29 14:12:23;;;;;;;;;;;;;;;;;;5042754;28;19936;-78
2023/11/29 14:14:51;;;;;;;;;;;;;;;;;;5034939;28;20378;-80
2023/11/29 14:17:18;;;;;;;;;;;;;;;;;;5043806;28;19978;-77
2023/11/29 14:19:44;;;;;;;;;;;;;;;;;;5050372;28;20019;-79
2023/11/29 14:22:11;;;;;;;;;;;;;;;;;;5045459;28;19979;-78
2023/11/29 14:24:37;;;;;;;;;;;;;;;;;;5049136;28;19929;-79
2023/11/29 14:27:04;;;;;;;;;;;;;;;;;;5041934;28;19925;-78
2023/11/29 14:29:30;;;;;;;;;;;;;;;;;;5042031;28;19929;-79
2023/11/29 14:31:57;;;;;;;;;;;;;;;;;;5047713;28;19979;-79
2023/11/29 14:34:27;;;;;;;;;;;;;;;;;;5034739;28;20000;-79
2023/11/29 14:36:53;;;;;;;;;;;;;;;;;;5045714;28;19935;-79
2023/11/29 14:39:21;;;;;;;;;;;;;;;;;;5039914;28;20386;-79
2023/11/29 14:41:47;;;;;;;;;;;;;;;;;;5047679;28;19948;-78
2023/11/29 14:44:14;;;;;;;;;;;;;;;;;;5050532;28;19964;-79
2023/11/29 14:46:40;;;;;;;;;;;;;;;;;;5038095;28;19975;-80
2023/11/29 14:49:07;;;;;;;;;;;;;;;;;;5049381;28;20300;-79
2023/11/29 14:51:39;;;;;;;;;;;;;;;;;;5041802;28;19932;-79
2023/11/29 14:54:05;;;;;;;;;;;;;;;;;;5035340;28;19975;-79
2023/11/29 14:56:31;;;;;;;;;;;;;;;;;;5024957;28;19925;-79
2023/11/29 14:59:03;;;;;;;;;;;;;;;;;;5043828;28;19924;-79
2023/11/29 15:01:29;;;;;;;;;;;;;;;;;;5038245;28;19925;-78
2023/11/29 15:03:55;;;;;;;;;;;;;;;;;;5045165;28;19929;-79
2023/11/29 15:06:22;;;;;;;;;;;;;;;;;;5033082;28;20309;-79
2023/11/29 15:08:48;;;;;;;;;;;;;;;;;;5044269;28;19932;-79
2023/11/29 15:11:15;;;;;;;;;;;;;;;;;;5042081;28;19936;-78
2023/11/29 15:13:41;;;;;;;;;;;;;;;;;;5046891;28;20019;-78
2023/11/29 15:16:07;;;;;;;;;;;;;;;;;;5043724;28;19925;-78
2023/11/29 15:18:34;;;;;;;;;;;;;;;;;;5024214;28;19947;-78
2023/11/29 15:21:00;;;;;;;;;;;;;;;;;;5046306;28;19948;-78
2023/11/29 15:23:27;;;;;;;;;;;;;;;;;;5049328;28;19925;-77
2023/11/29 15:25:53;;;;;;;;;;;;;;;;;;5043981;28;19976;-78
2023/11/29 15:28:20;;;;;;;;;;;;;;;;;;5041532;28;19931;-78
2023/11/29 15:30:46;;;;;;;;;;;;;;;;;;5044502;28;19925;-79
2023/11/29 15:33:13;;;;;;;;;;;;;;;;;;5043630;28;19962;-78
2023/11/29 15:35:40;;;;;;;;;;;;;;;;;;5044261;28;19964;-79
2023/11/29 15:38:07;;;;;;;;;;;;;;;;;;5040943;28;19925;-77
2023/11/29 15:40:34;;;;;;;;;;;;;;;;;;5051345;28;19928;-78
2023/11/29 15:43:04;;;;;;;;;;;;;;;;;;5048101;28;19925;-78
2023/11/29 15:45:30;;;;;;;;;;;;;;;;;;5032494;28;19925;-78
2023/11/29 15:47:57;;;;;;;;;;;;;;;;;;5037770;28;19936;-78
2023/11/29 15:50:26;;;;;;;;;;;;;;;;;;5041536;28;19929;-78
2023/11/29 15:52:52;;;;;;;;;;;;;;;;;;5043953;28;19924;-77
2023/11/29 15:55:19;;;;;;;;;;;;;;;;;;5050374;28;19949;-77
2023/11/29 15:57:47;;;;;;;;;;;;;;;;;;5053138;28;20306;-77
2023/11/29 16:00:13;;;;;;;;;;;;;;;;;;5036930;28;19929;-77
2023/11/29 16:02:40;;;;;;;;;;;;;;;;;;5030624;28;19937;-78
2023/11/29 16:05:06;;;;;;;;;;;;;;;;;;5047198;28;20439;-78
2023/11/29 16:07:35;;;;;;;;;;;;;;;;;;5050966;28;19928;-78
2023/11/29 16:10:02;;;;;;;;;;;;;;;;;;5050397;28;19943;-78
2023/11/29 16:12:29;;;;;;;;;;;;;;;;;;5048270;28;19925;-77
2023/11/29 16:14:56;;;;;;;;;;;;;;;;;;5052578;28;19925;-78
2023/11/29 16:17:22;;;;;;;;;;;;;;;;;;5049330;28;19925;-77
2023/11/29 16:19:49;;;;;;;;;;;;;;;;;;5044213;28;19973;-77
2023/11/29 16:22:15;;;;;;;;;;;;;;;;;;5053886;28;19924;-78
2023/11/29 16:24:42;;;;;;;;;;;;;;;;;;5033565;28;20393;-77
2023/11/29 16:27:08;;;;;;;;;;;;;;;;;;5037754;28;20016;-77
2023/11/29 16:29:35;;;;;;;;;;;;;;;;;;5044716;28;19925;-78
2023/11/29 16:32:04;;;;;;;;;;;;;;;;;;5044310;28;19936;-78
2023/11/29 16:34:31;;;;;;;;;;;;;;;;;;5050290;28;19952;-78
2023/11/29 16:36:57;;;;;;;;;;;;;;;;;;5052435;28;19925;-76
2023/11/29 16:39:24;;;;;;;;;;;;;;;;;;5046615;28;19971;-77
2023/11/29 16:41:50;;;;;;;;;;;;;;;;;;5032960;28;19961;-79